createdAt,value
2018-07-16T00:03:51.056Z,2.23
2018-07-16T00:06:24.860Z,2.00
2018-07-16T00:08:52.899Z,1.90
2018-07-16T00:13:59.911Z,2.10
2018-07-16T00:16:39.338Z,2.37
2018-07-16T00:29:47.380Z,3.17
2018-07-16T00:32:20.539Z,3.60
2018-07-16T00:34:53.686Z,2.70
2018-07-16T00:37:26.863Z,2.33
2018-07-16T00:39:55.247Z,2.20
2018-07-16T00:42:24.286Z,2.40
2018-07-16T00:47:30.693Z,2.10
2018-07-16T00:49:58.620Z,3.37
2018-07-16T00:52:37.338Z,2.40
2018-07-16T00:55:10.639Z,2.53
2018-07-16T00:57:43.537Z,2.30
2018-07-16T01:00:12.107Z,3.07
2018-07-16T01:02:45.417Z,2.50
2018-07-16T01:05:18.642Z,2.10
2018-07-16T01:13:03.655Z,2.00
2018-07-16T01:15:31.474Z,2.40
2018-07-16T01:18:04.587Z,2.43
2018-07-16T01:20:32.566Z,2.20
2018-07-16T01:23:01.100Z,1.73
2018-07-16T01:33:15.595Z,2.30
2018-07-16T01:38:38.785Z,2.30
2018-07-16T01:41:12.356Z,2.23
2018-07-16T01:46:24.517Z,2.10
2018-07-16T01:48:57.407Z,2.07
2018-07-16T01:51:30.798Z,2.90
2018-07-16T02:01:48.886Z,2.30
2018-07-16T02:04:16.826Z,3.00
2018-07-16T02:06:49.716Z,2.77
2018-07-16T02:09:18.595Z,2.40
2018-07-16T02:14:25.368Z,3.43
2018-07-16T02:17:04.240Z,2.40
2018-07-16T02:19:32.721Z,2.23
2018-07-16T02:22:01.001Z,2.27
2018-07-16T02:27:01.904Z,3.33
2018-07-16T02:29:35.265Z,2.47
2018-07-16T02:32:03.368Z,4.23
2018-07-16T02:42:27.323Z,2.50
2018-07-16T02:45:00.475Z,2.53
2018-07-16T02:47:29.291Z,2.60
2018-07-16T02:50:02.429Z,2.40
2018-07-16T02:52:30.367Z,2.63
2018-07-16T02:55:03.497Z,2.60
2018-07-16T03:02:45.149Z,2.40
2018-07-16T03:05:16.066Z,2.50
2018-07-16T03:07:44.337Z,2.53
2018-07-16T03:10:12.498Z,2.23
2018-07-16T03:12:41.074Z,2.30
2018-07-16T03:15:19.612Z,2.47
2018-07-16T03:20:20.789Z,2.80
2018-07-16T03:22:54.179Z,2.50
2018-07-16T03:25:27.567Z,2.90
2018-07-16T03:33:08.003Z,2.40
2018-07-16T03:38:15.309Z,2.60
2018-07-16T03:40:48.554Z,2.67
2018-07-16T03:43:21.948Z,2.53
2018-07-16T03:45:55.181Z,2.73
2018-07-16T03:58:59.294Z,2.50
2018-07-16T04:01:41.277Z,3.00
2018-07-16T04:04:14.576Z,3.47
2018-07-16T04:06:43.125Z,3.93
2018-07-16T04:09:16.328Z,2.70
2018-07-16T04:11:49.819Z,4.57
2018-07-16T04:14:23.345Z,2.53
2018-07-16T04:16:56.507Z,2.17
2018-07-16T04:19:29.598Z,3.23
2018-07-16T04:24:46.842Z,3.57
2018-07-16T04:32:27.473Z,5.43
2018-07-16T04:34:55.194Z,7.63
2018-07-16T04:37:22.650Z,9.47
2018-07-16T04:39:55.897Z,6.77
2018-07-16T04:47:36.448Z,4.33
2018-07-16T04:55:22.076Z,4.17
2018-07-16T04:57:55.377Z,6.50
2018-07-16T05:00:28.989Z,7.67
2018-07-16T05:08:14.252Z,6.30
2018-07-16T05:10:42.864Z,6.47
2018-07-16T05:13:11.850Z,5.97
2018-07-16T05:20:53.505Z,5.13
2018-07-16T05:23:26.995Z,5.50
2018-07-16T05:26:00.900Z,4.67
2018-07-16T05:31:13.291Z,8.43
2018-07-16T05:33:47.020Z,3.10
2018-07-16T05:36:15.326Z,7.57
2018-07-16T05:57:24.756Z,6.10
2018-07-16T05:59:52.420Z,6.23
2018-07-16T06:05:04.356Z,8.53
2018-07-16T06:15:29.794Z,11.37
2018-07-16T06:17:57.737Z,11.30
2018-07-16T06:20:31.118Z,6.27
2018-07-16T06:25:32.582Z,9.00
2018-07-16T06:30:35.414Z,3.10
2018-07-16T06:41:01.238Z,8.57
2018-07-16T06:43:30.270Z,6.80
2018-07-16T06:45:58.457Z,5.17
2018-07-16T06:48:33.327Z,8.40
2018-07-16T06:51:08.659Z,6.33
2018-07-16T06:56:22.726Z,6.20
2018-07-16T07:04:09.593Z,6.57
2018-07-16T07:06:48.288Z,5.63
2018-07-16T07:12:00.763Z,6.13
2018-07-16T07:14:40.123Z,10.93
2018-07-16T07:19:48.334Z,10.43
2018-07-16T07:25:00.452Z,13.00
2018-07-16T07:27:29.952Z,17.03
2018-07-16T07:35:16.016Z,20.63
2018-07-16T07:40:19.591Z,13.80
2018-07-16T07:42:48.375Z,15.07
2018-07-16T07:50:45.325Z,10.97
2018-07-16T07:53:13.237Z,14.83
2018-07-16T07:55:48.191Z,14.00
2018-07-16T07:58:22.042Z,8.20
2018-07-16T08:00:55.951Z,11.60
2018-07-16T08:03:24.188Z,5.57
2018-07-16T08:05:57.724Z,10.80
2018-07-16T08:08:31.293Z,12.33
2018-07-16T08:16:18.868Z,6.53
2018-07-16T09:11:08.534Z,9.47
2018-07-16T09:13:41.889Z,8.53
2018-07-16T09:16:13.502Z,4.67
2018-07-16T09:18:53.629Z,8.03
2018-07-16T09:21:26.594Z,5.77
2018-07-16T09:23:59.736Z,6.13
2018-07-16T09:26:31.137Z,3.60
2018-07-16T09:29:02.970Z,6.30
2018-07-16T09:31:41.614Z,4.97
2018-07-16T09:34:17.097Z,4.60
2018-07-16T09:36:58.842Z,4.13
2018-07-16T09:39:31.606Z,4.33
2018-07-16T09:42:27.561Z,4.73
2018-07-16T09:45:02.012Z,4.73
2018-07-16T09:47:36.320Z,5.50
2018-07-16T09:50:15.704Z,4.97
2018-07-16T09:55:50.249Z,6.37
2018-07-16T09:58:40.727Z,7.37
2018-07-16T10:01:20.181Z,4.07
2018-07-16T10:03:55.588Z,5.07
2018-07-16T10:06:31.909Z,3.83
2018-07-16T10:09:11.093Z,7.57
2018-07-16T10:11:47.773Z,4.10
2018-07-16T10:14:25.904Z,4.87
2018-07-16T10:17:03.295Z,5.83
2018-07-16T10:19:42.058Z,4.80
2018-07-16T10:22:27.627Z,3.60
2018-07-16T10:25:13.652Z,3.17
2018-07-16T10:27:54.325Z,3.43
2018-07-16T10:30:30.101Z,3.93
2018-07-16T10:33:07.689Z,3.23
2018-07-16T10:35:40.113Z,3.00
2018-07-16T10:38:15.817Z,3.20
2018-07-16T10:40:54.094Z,2.60
2018-07-16T10:43:30.888Z,2.90
2018-07-16T10:46:10.571Z,3.23
2018-07-16T10:48:48.351Z,2.90
2018-07-16T10:51:24.687Z,2.87
2018-07-16T10:59:48.850Z,2.40
2018-07-16T11:02:38.509Z,3.43
2018-07-16T11:05:22.269Z,2.20
2018-07-16T11:08:05.368Z,3.10
2018-07-16T11:10:38.116Z,2.80
2018-07-16T11:13:10.284Z,2.90
2018-07-16T11:15:43.260Z,3.60
2018-07-16T11:18:19.143Z,2.70
2018-07-16T11:20:54.941Z,2.57
2018-07-16T11:23:27.732Z,2.60
2018-07-16T11:26:08.797Z,3.07
2018-07-16T11:28:51.833Z,2.53
2018-07-16T11:31:28.756Z,2.63
2018-07-16T11:34:08.270Z,3.10
2018-07-16T11:36:44.877Z,2.57
2018-07-16T11:39:24.592Z,2.30
2018-07-16T11:41:57.844Z,3.07
2018-07-16T11:44:35.601Z,2.57
2018-07-16T11:47:20.013Z,2.43
2018-07-16T11:49:53.253Z,2.30
2018-07-16T11:52:39.949Z,3.10
2018-07-16T11:55:18.272Z,2.60
2018-07-16T12:03:20.669Z,2.60
2018-07-16T12:08:38.215Z,2.47
2018-07-16T12:11:23.792Z,2.60
2018-07-16T12:14:01.218Z,2.33
2018-07-16T12:16:37.871Z,2.30
2018-07-16T12:19:19.488Z,3.67
2018-07-16T12:21:58.862Z,2.50
2018-07-16T12:24:32.417Z,2.30
2018-07-16T12:27:06.232Z,2.73
2018-07-16T12:29:39.319Z,2.20
2018-07-16T12:32:15.570Z,2.67
2018-07-16T12:34:58.345Z,2.20
2018-07-16T12:37:36.662Z,2.50
2018-07-16T12:40:16.100Z,2.17
2018-07-16T12:42:54.838Z,2.23
2018-07-16T12:45:33.433Z,2.20
2018-07-16T12:48:17.916Z,2.43
2018-07-16T12:54:12.707Z,2.00
2018-07-16T12:56:48.577Z,2.37
2018-07-16T13:02:48.159Z,2.33
2018-07-16T13:05:29.476Z,1.97
2018-07-16T13:08:08.220Z,1.90
2018-07-16T13:10:49.530Z,2.10
2018-07-16T13:13:26.332Z,2.13
2018-07-16T13:16:14.604Z,2.40
2018-07-16T13:21:43.147Z,2.60
2018-07-16T13:24:22.658Z,2.50
2018-07-16T13:27:01.205Z,2.60
2018-07-16T13:29:33.745Z,5.67
2018-07-16T13:32:17.651Z,6.20
2018-07-16T13:35:00.085Z,3.10
2018-07-16T13:37:40.735Z,3.00
2018-07-16T13:40:14.032Z,4.27
2018-07-16T13:42:55.516Z,3.63
2018-07-16T13:45:27.418Z,3.73
2018-07-16T13:48:08.670Z,4.10
2018-07-16T13:50:49.608Z,2.83
2018-07-16T13:56:28.102Z,2.60
2018-07-16T13:59:08.211Z,2.40
2018-07-16T14:01:44.658Z,2.63
2018-07-16T14:04:33.249Z,2.83
2018-07-16T14:07:18.265Z,2.63
2018-07-16T14:09:54.288Z,3.07
2018-07-16T14:15:23.464Z,4.97
2018-07-16T14:17:59.736Z,2.83
2018-07-16T14:20:36.964Z,2.70
2018-07-16T14:23:16.987Z,3.10
2018-07-16T14:25:59.999Z,2.63
2018-07-16T14:28:49.614Z,3.23
2018-07-16T14:31:24.815Z,2.20
2018-07-16T14:34:01.740Z,3.60
2018-07-16T14:36:39.816Z,2.50
2018-07-16T14:39:19.173Z,3.27
2018-07-16T14:42:12.384Z,2.37
2018-07-16T14:44:55.481Z,2.33
2018-07-16T14:47:26.726Z,2.83
2018-07-16T14:52:47.726Z,2.63
2018-07-16T14:55:26.840Z,2.77
2018-07-16T14:58:08.024Z,3.07
2018-07-16T15:00:54.090Z,3.17
2018-07-16T15:03:30.558Z,2.60
2018-07-16T15:06:25.600Z,2.30
2018-07-16T15:09:01.546Z,3.63
2018-07-16T15:11:42.424Z,2.60
2018-07-16T15:14:16.434Z,2.57
2018-07-16T15:16:46.527Z,4.70
2018-07-16T15:19:22.318Z,3.23
2018-07-16T15:21:56.613Z,2.37
2018-07-16T15:24:29.409Z,3.10
2018-07-16T15:27:05.893Z,3.13
2018-07-16T15:29:51.556Z,2.30
2018-07-16T15:32:26.670Z,2.43
2018-07-16T15:35:01.718Z,3.00
2018-07-16T15:37:35.327Z,2.50
2018-07-16T15:40:06.482Z,2.10
2018-07-16T15:42:39.572Z,2.10
2018-07-16T15:45:10.801Z,2.70
2018-07-16T15:47:43.401Z,2.43
2018-07-16T15:50:28.564Z,2.27
2018-07-16T15:53:15.874Z,2.67
2018-07-16T15:55:49.720Z,2.83
2018-07-16T15:58:24.032Z,2.60
2018-07-16T16:00:59.126Z,1.90
2018-07-16T16:03:37.087Z,2.53
2018-07-16T16:06:10.134Z,2.03
2018-07-16T16:08:57.967Z,2.13
2018-07-16T16:11:41.880Z,2.50
2018-07-16T16:14:27.234Z,2.20
2018-07-16T16:17:09.624Z,2.60
2018-07-16T16:19:47.369Z,2.07
2018-07-16T16:22:29.995Z,3.00
2018-07-16T16:25:05.675Z,2.50
2018-07-16T16:27:43.561Z,2.53
2018-07-16T16:32:55.978Z,2.40
2018-07-16T16:38:04.631Z,1.87
2018-07-16T16:40:40.869Z,3.43
2018-07-16T16:43:12.087Z,2.17
2018-07-16T16:45:41.260Z,2.00
2018-07-16T16:48:10.484Z,2.20
2018-07-16T16:50:38.882Z,2.47
2018-07-16T16:58:47.233Z,2.27
2018-07-16T17:06:26.181Z,2.40
2018-07-16T17:08:54.958Z,2.07
2018-07-16T17:11:23.879Z,1.80
2018-07-16T17:14:15.423Z,2.03
2018-07-16T17:16:48.164Z,2.30
2018-07-16T17:19:18.597Z,2.00
2018-07-16T17:21:55.202Z,2.00
2018-07-16T17:24:34.112Z,2.23
2018-07-16T17:27:26.021Z,1.90
2018-07-16T17:29:55.004Z,1.97
2018-07-16T17:32:23.757Z,1.97
2018-07-16T17:34:53.823Z,2.20
2018-07-16T17:37:29.439Z,2.13
2018-07-16T17:40:06.498Z,2.30
2018-07-16T17:42:35.671Z,1.93
2018-07-16T17:45:04.959Z,2.30
2018-07-16T17:47:33.593Z,2.43
2018-07-16T17:50:25.384Z,2.60
2018-07-16T17:52:55.719Z,2.17
2018-07-16T17:55:27.826Z,2.40
2018-07-16T17:58:00.880Z,2.53
2018-07-16T18:00:30.763Z,3.00
2018-07-16T18:03:03.723Z,5.00
2018-07-16T18:05:33.853Z,4.03
2018-07-16T18:08:03.730Z,3.30
2018-07-16T18:10:57.309Z,3.00
2018-07-16T18:13:35.466Z,2.40
2018-07-16T18:16:05.799Z,2.43
2018-07-16T18:18:36.008Z,3.73
2018-07-16T18:21:04.451Z,2.43
2018-07-16T18:23:32.852Z,2.40
2018-07-16T18:26:02.336Z,2.50
2018-07-16T18:28:36.738Z,5.47
2018-07-16T18:31:10.357Z,8.00
2018-07-16T18:33:48.669Z,8.37
2018-07-16T18:36:29.085Z,12.77
2018-07-16T18:38:59.458Z,9.80
2018-07-16T18:41:29.454Z,11.57
2018-07-16T18:44:02.002Z,9.37
2018-07-16T18:46:31.436Z,6.77
2018-07-16T18:49:03.989Z,14.17
2018-07-16T18:51:33.119Z,13.10
2018-07-16T18:54:06.193Z,16.53
2018-07-16T18:56:39.231Z,17.30
2018-07-16T18:59:10.656Z,13.97
2018-07-16T19:01:44.867Z,10.93
2018-07-16T19:04:17.232Z,10.63
2018-07-16T19:06:51.239Z,12.33
2018-07-16T19:09:20.846Z,9.10
2018-07-16T19:12:01.545Z,8.33
2018-07-16T19:14:31.876Z,9.53
2018-07-16T19:17:02.512Z,13.43
2018-07-16T19:19:31.204Z,10.97
2018-07-16T19:22:01.365Z,8.13
2018-07-16T19:24:32.263Z,11.23
2018-07-16T19:27:00.641Z,8.83
2018-07-16T19:29:31.778Z,10.97
2018-07-16T19:32:03.765Z,9.73
2018-07-16T19:34:33.493Z,9.10
2018-07-16T19:37:07.364Z,10.73
2018-07-16T19:39:39.657Z,8.30
2018-07-16T19:42:10.355Z,8.33
2018-07-16T19:44:40.659Z,8.17
2018-07-16T19:47:12.561Z,5.50
2018-07-16T19:49:45.590Z,5.20
2018-07-16T19:54:53.990Z,4.97
2018-07-16T19:57:23.045Z,6.57
2018-07-16T19:59:59.462Z,4.57
2018-07-16T20:02:31.510Z,3.90
2018-07-16T20:05:05.036Z,3.63
2018-07-16T20:07:35.304Z,3.50
2018-07-16T20:10:04.508Z,3.47
2018-07-16T20:12:40.837Z,3.03
2018-07-16T20:15:16.219Z,4.00
2018-07-16T20:17:46.467Z,4.80
2018-07-16T20:20:15.202Z,3.37
2018-07-16T20:25:19.536Z,3.10
2018-07-16T20:27:53.261Z,3.67
2018-07-16T20:30:22.913Z,3.67
2018-07-16T20:32:54.603Z,3.20
2018-07-16T20:35:29.493Z,2.97
2018-07-16T20:38:08.537Z,3.17
2018-07-16T20:40:38.340Z,3.50
2018-07-16T20:43:08.288Z,4.77
2018-07-16T20:45:39.132Z,3.50
2018-07-16T20:51:22.161Z,3.67
2018-07-16T20:57:14.088Z,3.73
2018-07-16T21:05:53.636Z,3.60
2018-07-16T21:08:25.957Z,4.57
2018-07-16T21:20:26.731Z,4.67
2018-07-16T21:23:10.725Z,4.13
2018-07-16T21:25:45.327Z,3.80
2018-07-16T21:31:22.770Z,4.13
2018-07-16T21:37:32.810Z,3.63
2018-07-16T21:40:29.133Z,5.53
2018-07-16T21:43:00.411Z,4.10
2018-07-16T21:45:30.582Z,4.70
2018-07-16T21:48:01.049Z,4.60
2018-07-16T21:50:30.949Z,3.73
2018-07-16T21:53:01.013Z,4.60
2018-07-16T21:55:30.219Z,3.73
2018-07-16T21:57:59.769Z,3.47
2018-07-16T22:00:30.609Z,4.13
2018-07-16T22:03:00.255Z,5.00
2018-07-16T22:05:30.389Z,4.00
2018-07-16T22:11:25.195Z,3.63
2018-07-16T22:13:56.382Z,3.87
2018-07-16T22:16:26.822Z,3.97
2018-07-16T22:18:57.758Z,3.73
2018-07-16T22:21:33.944Z,3.80
2018-07-16T22:24:03.653Z,4.13
2018-07-16T22:26:33.587Z,4.60
2018-07-16T22:29:03.183Z,4.77
2018-07-16T22:31:34.819Z,4.10
2018-07-16T22:34:04.040Z,3.87
2018-07-16T22:36:33.557Z,4.07
2018-07-16T22:39:07.517Z,3.70
2018-07-16T22:45:03.608Z,3.77
2018-07-16T22:47:53.340Z,4.03
2018-07-16T22:50:47.192Z,4.13
2018-07-16T22:53:15.489Z,4.10
2018-07-16T22:55:44.702Z,3.90
2018-07-16T22:58:47.447Z,4.23
2018-07-16T23:01:22.730Z,3.83
2018-07-16T23:09:42.769Z,4.70
2018-07-16T23:12:44.054Z,3.77
2018-07-16T23:15:45.685Z,3.27
2018-07-16T23:18:24.018Z,4.37
2018-07-16T23:20:53.564Z,4.10
2018-07-16T23:23:36.189Z,4.13
2018-07-16T23:26:08.079Z,3.93
2018-07-16T23:28:40.842Z,4.07
2018-07-16T23:31:14.275Z,3.93
2018-07-16T23:33:42.893Z,3.97
2018-07-16T23:36:18.887Z,3.53
2018-07-16T23:38:55.025Z,4.70
2018-07-16T23:41:23.747Z,4.63
2018-07-16T23:43:53.838Z,4.70
2018-07-16T23:46:29.480Z,4.57
2018-07-16T23:48:58.330Z,5.87
2018-07-16T23:51:26.752Z,4.33
2018-07-16T23:53:55.423Z,4.40
2018-07-16T23:56:23.492Z,4.87
2018-07-16T23:58:53.607Z,4.67
